Etusivu
METAR-TAF:

METAR-TAF

Lentoasemat :

Ashland, Wisconsin, Yhdysvallat

Leveyspiiri: 46-32-59N, Pituuspiiri: 090-55-06W, korkeus merenpinnasta: 251 m

Tämänhetkinen sää

Tämä raportti tehtiin 55 minuuttia sitten, kello 19.53 UTC
Tuuli 6 kn lännestä/lounaasta
Lämpötila -2°C
Kosteus 63%
Ilmanpaine 1027 hPa
Näkyvyys: 16.1 km
selkeää

METAR: KASX 221953Z AUTO 25006KT 10SM CLR M02/M08 A3034 RMK AO2 SLP287 T10171078

Aika: 14:48 (20:48 UTC)


TAF: puuttuu

Säähavainnot ja -ennusteet yli 4000 lentoasemalta (METAR- ja TAF-raportit).

Käytössä olevat sääasemat on merkitty karttaan keltaisilla ja punaisilla pisteillä.

Aseta hiiri pisteen päälle nähdäksesi sääaseman nimen.

Klikkaa sitten nähdäksesi säähavainnot ja -ennusteet.

Kartan vaihtaminen: klikkaa mustalla rastilla varustettuja vihreitä pisteitä, niin voit zoomata sisään; viivalla varustettua vihreää pistettä, niin voit zoomata ulos tai vihreitä nuolia, niin pääset viereisille kartoille.


METAR-TAF: